createdAt,value
2022-12-11T00:02:26.683Z,14.57
2022-12-11T00:05:00.465Z,16.20
2022-12-11T00:07:34.026Z,14.73
2022-12-11T00:10:10.454Z,18.13
2022-12-11T00:12:44.089Z,17.23
2022-12-11T00:15:18.297Z,15.37
2022-12-11T00:17:51.755Z,15.93
2022-12-11T00:20:25.537Z,17.20
2022-12-11T00:22:59.167Z,16.57
2022-12-11T00:25:34.587Z,19.97
2022-12-11T00:28:08.038Z,21.27
2022-12-11T00:30:43.134Z,18.67
2022-12-11T00:33:17.156Z,16.03
2022-12-11T00:35:50.848Z,15.13
2022-12-11T00:38:25.055Z,19.80
2022-12-11T00:41:00.905Z,17.10
2022-12-11T00:43:34.404Z,17.57
2022-12-11T00:46:08.882Z,22.00
2022-12-11T00:48:42.476Z,25.83
2022-12-11T00:51:16.397Z,17.27
2022-12-11T00:53:49.900Z,18.87
2022-12-11T00:56:25.296Z,17.03
2022-12-11T00:58:58.837Z,17.27
2022-12-11T01:01:33.408Z,19.37
2022-12-11T01:04:07.042Z,18.70
2022-12-11T01:06:40.950Z,19.30
2022-12-11T01:09:32.231Z,21.93
2022-12-11T01:12:07.685Z,19.73
2022-12-11T01:14:41.088Z,22.40
2022-12-11T01:17:14.738Z,18.67
2022-12-11T01:19:48.866Z,18.37
2022-12-11T01:22:22.845Z,20.20
2022-12-11T01:24:56.475Z,18.47
2022-12-11T01:27:31.538Z,18.00
2022-12-11T01:30:06.048Z,19.33
2022-12-11T01:32:39.832Z,17.00
2022-12-11T01:35:14.204Z,20.33
2022-12-11T01:37:49.614Z,20.83
2022-12-11T01:40:23.908Z,22.00
2022-12-11T01:42:59.302Z,20.07
2022-12-11T01:45:39.916Z,21.83
2022-12-11T01:48:17.441Z,17.50
2022-12-11T01:50:53.127Z,20.60
2022-12-11T01:53:32.025Z,17.67
2022-12-11T01:58:45.115Z,19.07
2022-12-11T02:01:26.650Z,21.27
2022-12-11T02:04:00.934Z,23.93
2022-12-11T02:06:37.828Z,26.03
2022-12-11T02:09:14.001Z,24.17
2022-12-11T02:11:56.490Z,21.57
2022-12-11T02:14:39.505Z,22.33
2022-12-11T02:17:18.216Z,21.97
2022-12-11T02:20:04.319Z,22.00
2022-12-11T02:22:55.766Z,20.50
2022-12-11T02:25:36.767Z,22.27
2022-12-11T02:28:19.739Z,22.53
2022-12-11T02:30:58.884Z,20.80
2022-12-11T02:33:37.331Z,25.33
2022-12-11T02:36:11.474Z,22.30
2022-12-11T02:38:50.609Z,21.67
2022-12-11T02:41:26.368Z,22.33
2022-12-11T02:44:04.338Z,23.73
2022-12-11T02:46:38.985Z,20.27
2022-12-11T02:49:14.847Z,19.40
2022-12-11T02:51:48.787Z,22.97
2022-12-11T02:54:27.978Z,21.77
2022-12-11T02:57:06.722Z,22.20
2022-12-11T02:59:45.139Z,20.73
2022-12-11T03:02:19.227Z,20.90
2022-12-11T03:04:52.980Z,17.63
2022-12-11T03:07:32.754Z,17.90
2022-12-11T03:10:08.844Z,16.63
2022-12-11T03:12:47.031Z,17.90
2022-12-11T03:15:35.080Z,16.60
2022-12-11T03:18:16.679Z,17.73
2022-12-11T03:21:03.165Z,17.60
2022-12-11T03:23:43.605Z,18.83
2022-12-11T03:26:19.819Z,18.57
2022-12-11T03:28:59.610Z,19.87
2022-12-11T03:31:41.991Z,20.80
2022-12-11T03:34:20.666Z,19.47
2022-12-11T03:36:56.938Z,20.75
2022-12-11T03:39:33.966Z,20.60
2022-12-11T03:42:11.176Z,20.97
2022-12-11T03:44:49.237Z,18.77
2022-12-11T03:47:27.594Z,26.65
2022-12-11T03:50:04.786Z,21.30
2022-12-11T03:52:45.581Z,20.77
2022-12-11T03:55:22.271Z,24.30
2022-12-11T03:57:55.873Z,24.00
2022-12-11T04:00:30.218Z,32.83
2022-12-11T04:03:14.800Z,22.37
2022-12-11T04:05:50.463Z,22.20
2022-12-11T04:08:24.517Z,25.83
2022-12-11T04:11:12.169Z,24.23
2022-12-11T04:13:45.798Z,23.20
2022-12-11T04:16:18.701Z,23.00
2022-12-11T04:19:11.177Z,23.80
2022-12-11T04:22:02.597Z,20.53
2022-12-11T04:24:36.094Z,24.80
2022-12-11T04:27:09.942Z,23.57
2022-12-11T04:29:43.343Z,24.07
2022-12-11T04:32:17.097Z,25.60
2022-12-11T04:34:52.241Z,31.47
2022-12-11T04:37:25.863Z,32.80
2022-12-11T04:39:59.326Z,25.00
2022-12-11T04:42:32.988Z,22.93
2022-12-11T04:45:08.663Z,20.90
2022-12-11T04:47:43.476Z,23.97
2022-12-11T04:50:18.949Z,25.40
2022-12-11T04:52:56.090Z,19.87
2022-12-11T04:55:29.590Z,22.33
2022-12-11T04:58:03.275Z,21.53
2022-12-11T05:00:36.740Z,27.50
2022-12-11T05:03:10.781Z,24.40
2022-12-11T05:05:50.642Z,25.33
2022-12-11T05:08:24.403Z,26.77
2022-12-11T05:10:58.530Z,24.03
2022-12-11T05:13:32.403Z,23.70
2022-12-11T05:16:06.890Z,25.50
2022-12-11T05:18:40.837Z,27.33
2022-12-11T05:21:17.307Z,26.27
2022-12-11T05:23:51.068Z,23.77
2022-12-11T05:26:24.521Z,25.57
2022-12-11T05:28:58.288Z,25.87
2022-12-11T05:31:31.887Z,26.40
2022-12-11T05:34:05.655Z,25.90
2022-12-11T05:36:40.830Z,28.93
2022-12-11T05:39:14.472Z,26.73
2022-12-11T05:41:47.952Z,26.73
2022-12-11T05:44:21.803Z,26.77
2022-12-11T05:46:55.300Z,28.10
2022-12-11T05:49:30.996Z,28.13
2022-12-11T05:52:06.316Z,25.47
2022-12-11T05:54:40.459Z,24.80
2022-12-11T05:57:13.964Z,25.33
2022-12-11T05:59:47.584Z,28.83
2022-12-11T06:02:21.306Z,27.83
2022-12-11T06:04:55.057Z,26.57
2022-12-11T06:07:29.947Z,24.53
2022-12-11T06:10:03.716Z,26.03
2022-12-11T06:12:37.928Z,24.30
2022-12-11T06:15:12.061Z,25.83
2022-12-11T06:17:46.418Z,26.07
2022-12-11T06:20:20.197Z,24.13
2022-12-11T06:22:55.233Z,24.07
2022-12-11T06:25:29.956Z,26.27
2022-12-11T06:28:03.427Z,32.33
2022-12-11T06:30:38.909Z,33.77
2022-12-11T06:33:13.433Z,30.93
2022-12-11T06:35:47.110Z,25.77
2022-12-11T06:38:21.887Z,26.33
2022-12-11T06:40:57.150Z,26.80
2022-12-11T06:43:30.712Z,28.00
2022-12-11T06:46:05.406Z,28.10
2022-12-11T06:48:39.808Z,25.97
2022-12-11T06:51:18.398Z,26.83
2022-12-11T06:53:54.887Z,26.77
2022-12-11T06:56:28.535Z,27.60
2022-12-11T06:59:07.154Z,25.10
2022-12-11T07:01:41.874Z,26.70
2022-12-11T07:04:15.379Z,27.73
2022-12-11T07:06:49.202Z,31.07
2022-12-11T07:09:24.286Z,29.77
2022-12-11T07:11:58.183Z,27.23
2022-12-11T07:14:31.664Z,27.27
2022-12-11T07:17:05.463Z,36.80
2022-12-11T07:19:38.890Z,28.47
2022-12-11T07:22:12.579Z,28.50
2022-12-11T07:24:47.456Z,33.27
2022-12-11T07:27:21.241Z,35.10
2022-12-11T07:29:55.481Z,36.13
2022-12-11T07:32:29.767Z,30.63
2022-12-11T07:35:03.410Z,33.23
2022-12-11T07:37:38.122Z,33.27
2022-12-11T07:40:13.908Z,28.67
2022-12-11T07:42:48.118Z,29.87
2022-12-11T07:45:21.725Z,32.60
2022-12-11T07:47:55.463Z,30.00
2022-12-11T07:50:29.003Z,29.00
2022-12-11T07:53:02.903Z,30.37
2022-12-11T07:55:37.834Z,27.80
2022-12-11T07:58:11.580Z,30.77
2022-12-11T08:00:45.461Z,29.53
2022-12-11T08:03:19.167Z,34.20
2022-12-11T08:05:53.710Z,31.83
2022-12-11T08:08:27.504Z,36.57
2022-12-11T08:11:03.457Z,28.73
2022-12-11T08:13:37.256Z,29.90
2022-12-11T08:16:13.066Z,29.13
2022-12-11T08:18:48.323Z,30.13
2022-12-11T08:21:24.450Z,30.90
2022-12-11T08:23:58.196Z,33.70
2022-12-11T08:26:33.169Z,30.50
2022-12-11T08:29:06.994Z,31.73
2022-12-11T08:31:40.707Z,30.87
2022-12-11T08:34:14.634Z,30.70
2022-12-11T08:36:48.323Z,30.10
2022-12-11T08:39:22.237Z,32.13
2022-12-11T08:41:57.462Z,32.03
2022-12-11T08:44:31.426Z,32.73
2022-12-11T08:47:05.333Z,30.17
2022-12-11T08:49:39.115Z,29.00
2022-12-11T08:52:12.856Z,29.83
2022-12-11T08:54:46.515Z,27.93
2022-12-11T08:57:21.368Z,30.70
2022-12-11T08:59:55.052Z,33.60
2022-12-11T09:02:28.643Z,29.33
2022-12-11T09:05:02.561Z,30.23
2022-12-11T09:07:36.928Z,27.57
2022-12-11T09:10:11.479Z,32.07
2022-12-11T09:12:46.752Z,28.13
2022-12-11T09:15:20.730Z,26.47
2022-12-11T09:17:54.261Z,31.47
2022-12-11T09:20:28.008Z,29.77
2022-12-11T09:23:02.461Z,26.13
2022-12-11T09:25:36.142Z,30.60
2022-12-11T09:28:11.037Z,33.67
2022-12-11T09:30:44.761Z,30.57
2022-12-11T09:33:18.334Z,28.00
2022-12-11T09:35:58.575Z,29.67
2022-12-11T09:38:32.825Z,30.13
2022-12-11T09:41:27.662Z,28.97
2022-12-11T09:44:09.484Z,27.17
2022-12-11T09:46:43.703Z,27.77
2022-12-11T09:49:26.021Z,28.97
2022-12-11T09:52:07.848Z,28.30
2022-12-11T09:54:47.110Z,25.63
2022-12-11T09:57:36.295Z,25.93
2022-12-11T10:00:22.706Z,23.73
2022-12-11T10:03:12.243Z,29.80
2022-12-11T10:05:51.152Z,24.38
2022-12-11T10:08:31.719Z,26.80
2022-12-11T10:11:23.797Z,26.20
2022-12-11T10:14:07.030Z,24.83
2022-12-11T10:16:46.146Z,25.10
2022-12-11T10:19:23.076Z,28.17
2022-12-11T10:21:57.731Z,23.20
2022-12-11T10:27:36.066Z,27.93
2022-12-11T10:30:18.035Z,25.13
2022-12-11T10:32:58.627Z,25.20
2022-12-11T10:35:35.929Z,21.97
2022-12-11T10:38:15.977Z,27.80
2022-12-11T10:40:53.691Z,24.70
2022-12-11T10:43:35.159Z,23.97
2022-12-11T10:46:17.881Z,24.57
2022-12-11T10:48:55.399Z,27.50
2022-12-11T10:51:35.963Z,26.80
2022-12-11T10:54:28.082Z,22.53
2022-12-11T10:57:03.325Z,24.67
2022-12-11T10:59:39.942Z,25.13
2022-12-11T11:02:22.852Z,24.53
2022-12-11T11:05:00.307Z,24.60
2022-12-11T11:07:34.341Z,26.17
2022-12-11T11:10:17.199Z,26.83
2022-12-11T11:12:51.624Z,29.17
2022-12-11T11:15:28.143Z,24.63
2022-12-11T11:18:10.668Z,27.43
2022-12-11T11:20:49.022Z,26.80
2022-12-11T11:23:24.928Z,29.33
2022-12-11T11:26:00.243Z,26.73
2022-12-11T11:28:37.853Z,29.73
2022-12-11T11:31:13.685Z,27.33
2022-12-11T11:33:56.206Z,25.83
2022-12-11T11:36:33.600Z,28.17
2022-12-11T11:39:19.813Z,27.53
2022-12-11T11:41:59.652Z,23.50
2022-12-11T11:44:38.022Z,26.10
2022-12-11T11:47:15.769Z,24.55
2022-12-11T11:49:56.750Z,27.48
2022-12-11T11:52:35.561Z,25.60
2022-12-11T11:55:20.322Z,28.77
2022-12-11T11:58:02.018Z,24.80
2022-12-11T12:00:35.754Z,27.03
2022-12-11T12:03:12.286Z,23.00
2022-12-11T12:05:53.121Z,24.53
2022-12-11T12:08:40.530Z,27.43
2022-12-11T12:11:25.883Z,27.63
2022-12-11T12:14:28.776Z,27.90
2022-12-11T12:17:15.193Z,29.37
2022-12-11T12:19:57.425Z,27.20
2022-12-11T12:22:48.548Z,27.60
2022-12-11T12:25:29.686Z,26.17
2022-12-11T12:28:11.587Z,31.17
2022-12-11T12:30:57.727Z,29.77
2022-12-11T12:33:43.560Z,23.70
2022-12-11T12:36:23.184Z,25.67
2022-12-11T12:39:02.883Z,25.45
2022-12-11T12:41:48.236Z,30.50
2022-12-11T12:44:24.903Z,37.00
2022-12-11T12:47:01.830Z,24.50
2022-12-11T12:49:41.140Z,24.13
2022-12-11T12:52:17.683Z,31.08
2022-12-11T12:55:16.128Z,28.23
2022-12-11T12:57:53.589Z,26.33
2022-12-11T13:00:30.836Z,29.25
2022-12-11T13:03:15.292Z,33.92
2022-12-11T13:05:58.833Z,24.38
2022-12-11T13:08:38.895Z,30.55
2022-12-11T13:11:14.837Z,43.65
2022-12-11T13:14:02.005Z,31.85
2022-12-11T13:16:38.200Z,31.42
2022-12-11T13:19:19.377Z,24.67
2022-12-11T13:21:57.758Z,25.55
2022-12-11T13:24:33.357Z,32.40
2022-12-11T13:27:11.339Z,27.08
2022-12-11T13:29:46.160Z,30.03
2022-12-11T13:32:25.678Z,31.77
2022-12-11T13:35:01.016Z,38.08
2022-12-11T13:37:37.870Z,30.77
2022-12-11T13:40:19.770Z,26.50
2022-12-11T13:42:56.735Z,28.25
2022-12-11T13:45:46.976Z,25.42
2022-12-11T13:48:25.607Z,25.55
2022-12-11T13:51:00.319Z,24.63
2022-12-11T13:53:34.431Z,28.63
2022-12-11T13:56:16.932Z,25.98
2022-12-11T13:58:50.570Z,26.02
2022-12-11T14:01:28.601Z,25.58
2022-12-11T14:04:05.500Z,27.45
2022-12-11T14:06:40.667Z,27.52
2022-12-11T14:09:19.846Z,25.42
2022-12-11T14:11:57.260Z,31.20
2022-12-11T14:14:41.312Z,25.23
2022-12-11T14:17:24.965Z,32.13
2022-12-11T14:20:01.821Z,27.75
2022-12-11T14:22:35.716Z,32.25
2022-12-11T14:25:21.706Z,32.90
2022-12-11T14:27:57.365Z,31.83
2022-12-11T14:30:34.117Z,29.40
2022-12-11T14:33:11.743Z,32.78
2022-12-11T14:35:47.727Z,32.40
2022-12-11T14:38:27.953Z,28.93
2022-12-11T14:41:05.534Z,27.13
2022-12-11T14:43:46.434Z,32.08
2022-12-11T14:46:37.654Z,27.25
2022-12-11T14:49:22.754Z,29.77
2022-12-11T14:51:58.602Z,29.17
2022-12-11T14:54:36.841Z,35.60
2022-12-11T14:57:19.214Z,37.13
2022-12-11T14:59:55.133Z,33.87
2022-12-11T15:02:32.150Z,31.58
2022-12-11T15:05:25.170Z,27.90
2022-12-11T15:08:01.507Z,24.00
2022-12-11T15:10:38.685Z,33.80
2022-12-11T15:13:16.601Z,31.48
2022-12-11T15:15:51.155Z,30.15
2022-12-11T15:18:26.463Z,37.67
2022-12-11T15:21:03.941Z,34.45
2022-12-11T15:23:50.388Z,31.63
2022-12-11T15:26:35.385Z,29.93
2022-12-11T15:29:34.022Z,32.70
2022-12-11T15:32:19.705Z,35.80
2022-12-11T15:34:55.011Z,29.37
2022-12-11T15:37:31.842Z,29.27
2022-12-11T15:40:07.872Z,33.63
2022-12-11T15:42:43.366Z,32.03
2022-12-11T15:45:19.080Z,29.48
2022-12-11T15:47:53.726Z,32.77
2022-12-11T15:50:29.153Z,37.50
2022-12-11T15:53:04.442Z,29.25
2022-12-11T15:55:40.109Z,36.80
2022-12-11T15:58:16.819Z,34.73
2022-12-11T16:00:51.393Z,34.30
2022-12-11T16:03:25.858Z,38.60
2022-12-11T16:05:59.585Z,37.13
2022-12-11T16:08:34.436Z,36.77
2022-12-11T16:11:08.095Z,36.47
2022-12-11T16:13:41.572Z,39.73
2022-12-11T16:16:15.272Z,36.60
2022-12-11T16:18:48.816Z,37.53
2022-12-11T16:21:22.519Z,39.03
2022-12-11T16:23:57.453Z,36.63
2022-12-11T16:26:31.197Z,36.88
2022-12-11T16:29:04.617Z,34.40
2022-12-11T16:31:38.340Z,38.47
2022-12-11T16:34:11.976Z,37.05
2022-12-11T16:36:45.670Z,39.13
2022-12-11T16:39:20.672Z,38.65
2022-12-11T16:41:54.602Z,39.20
2022-12-11T16:44:28.499Z,43.22
2022-12-11T16:47:02.121Z,34.72
2022-12-11T16:49:35.700Z,40.30
2022-12-11T16:52:09.537Z,40.07
2022-12-11T16:54:44.445Z,34.90
2022-12-11T16:57:18.203Z,46.03
2022-12-11T16:59:51.788Z,34.97
2022-12-11T17:02:25.571Z,35.30
2022-12-11T17:04:59.208Z,35.13
2022-12-11T17:07:33.389Z,32.67
2022-12-11T17:10:09.607Z,35.30
2022-12-11T17:12:43.441Z,42.08
2022-12-11T17:15:17.087Z,41.35
2022-12-11T17:17:51.053Z,40.40
2022-12-11T17:20:24.901Z,40.38
2022-12-11T17:22:58.724Z,32.78
2022-12-11T17:25:33.665Z,39.93
2022-12-11T17:28:07.299Z,45.15
2022-12-11T17:30:41.908Z,36.05
2022-12-11T17:33:15.758Z,49.03
2022-12-11T17:35:49.739Z,40.90
2022-12-11T17:38:23.542Z,34.92
2022-12-11T17:40:58.399Z,36.72
2022-12-11T17:43:32.097Z,34.53
2022-12-11T17:46:06.615Z,38.17
2022-12-11T17:48:41.017Z,33.65
2022-12-11T17:51:20.955Z,37.25
2022-12-11T17:53:56.339Z,39.97
2022-12-11T17:56:33.868Z,36.53
2022-12-11T17:59:07.954Z,40.55
2022-12-11T18:01:41.547Z,37.10
2022-12-11T18:04:15.384Z,34.83
2022-12-11T18:06:48.926Z,38.85
2022-12-11T18:09:22.711Z,43.97
2022-12-11T18:11:57.733Z,40.15
2022-12-11T18:14:31.467Z,44.47
2022-12-11T18:17:05.064Z,42.23
2022-12-11T18:19:44.389Z,46.75
2022-12-11T18:22:19.506Z,46.47
2022-12-11T18:24:54.638Z,44.23
2022-12-11T18:27:29.625Z,47.58
2022-12-11T18:30:03.795Z,43.72
2022-12-11T18:32:37.326Z,48.65
2022-12-11T18:35:12.628Z,43.55
2022-12-11T18:37:46.465Z,51.33
2022-12-11T18:40:20.380Z,58.13
2022-12-11T18:42:55.208Z,57.43
2022-12-11T18:45:29.010Z,64.30
2022-12-11T18:48:02.671Z,55.67
2022-12-11T18:50:36.921Z,59.83
2022-12-11T18:53:10.526Z,57.40
2022-12-11T18:55:44.960Z,52.10
2022-12-11T18:58:20.497Z,51.13
2022-12-11T19:00:54.200Z,52.97
2022-12-11T19:03:29.452Z,48.40
2022-12-11T19:06:13.912Z,50.65
2022-12-11T19:08:48.068Z,42.92
2022-12-11T19:11:24.540Z,43.67
2022-12-11T19:13:59.750Z,40.93
2022-12-11T19:16:35.533Z,43.72
2022-12-11T19:19:12.161Z,41.28
2022-12-11T19:21:46.313Z,45.33
2022-12-11T19:24:23.154Z,43.20
2022-12-11T19:26:56.923Z,44.13
2022-12-11T19:29:33.344Z,47.60
2022-12-11T19:32:07.094Z,39.95
2022-12-11T19:34:41.251Z,48.87
2022-12-11T19:37:14.972Z,50.33
2022-12-11T19:39:48.534Z,45.83
2022-12-11T19:42:22.312Z,49.55
2022-12-11T19:44:57.133Z,46.10
2022-12-11T19:47:30.782Z,46.47
2022-12-11T19:50:04.493Z,39.78
2022-12-11T19:52:42.878Z,59.80
2022-12-11T19:55:21.487Z,44.47
2022-12-11T19:57:55.150Z,40.83
2022-12-11T20:00:30.052Z,40.07
2022-12-11T20:03:03.747Z,39.80
2022-12-11T20:05:37.387Z,41.90
2022-12-11T20:11:05.826Z,46.75
2022-12-11T20:13:40.522Z,46.25
2022-12-11T20:16:16.567Z,49.73
2022-12-11T20:18:50.515Z,45.90
2022-12-11T20:21:24.623Z,45.35
2022-12-11T20:23:58.456Z,44.80
2022-12-11T20:26:32.620Z,47.38
2022-12-11T20:29:08.176Z,46.35
2022-12-11T20:31:44.149Z,41.33
2022-12-11T20:34:18.140Z,44.10
2022-12-11T20:36:53.189Z,42.97
2022-12-11T20:39:27.007Z,43.33
2022-12-11T20:42:04.631Z,46.13
2022-12-11T20:44:40.730Z,42.13
2022-12-11T20:47:20.586Z,42.80
2022-12-11T20:49:55.043Z,47.97
2022-12-11T20:52:29.107Z,39.80
2022-12-11T20:55:02.877Z,41.20
2022-12-11T20:57:40.563Z,43.75
2022-12-11T21:00:18.251Z,43.20
2022-12-11T21:02:53.193Z,43.60
2022-12-11T21:05:26.873Z,39.00
2022-12-11T21:08:00.514Z,45.40
2022-12-11T21:10:34.745Z,45.00
2022-12-11T21:13:08.538Z,46.87
2022-12-11T21:15:42.314Z,46.03
2022-12-11T21:18:17.167Z,51.28
2022-12-11T21:20:51.085Z,45.80
2022-12-11T21:23:24.606Z,51.47
2022-12-11T21:25:58.328Z,46.15
2022-12-11T21:28:35.431Z,46.75
2022-12-11T21:31:12.793Z,44.33
2022-12-11T21:33:48.266Z,43.50
2022-12-11T21:36:22.099Z,40.33
2022-12-11T21:38:55.596Z,44.92
2022-12-11T21:41:29.745Z,44.10
2022-12-11T21:46:57.254Z,45.17
2022-12-11T21:49:32.174Z,43.30
2022-12-11T21:52:06.927Z,53.15
2022-12-11T21:54:41.342Z,47.75
2022-12-11T21:57:15.115Z,42.85
2022-12-11T21:59:48.651Z,40.92
2022-12-11T22:02:22.641Z,43.17
2022-12-11T22:05:00.764Z,42.83
2022-12-11T22:07:34.482Z,45.53
2022-12-11T22:10:09.074Z,40.50
2022-12-11T22:12:42.788Z,41.15
2022-12-11T22:15:16.337Z,45.28
2022-12-11T22:17:50.219Z,44.72
2022-12-11T22:20:25.093Z,41.53
2022-12-11T22:22:58.873Z,45.55
2022-12-11T22:25:32.422Z,41.42
2022-12-11T22:28:06.189Z,45.15
2022-12-11T22:30:40.018Z,45.63
2022-12-11T22:33:14.204Z,40.13
2022-12-11T22:35:56.466Z,48.50
2022-12-11T22:38:30.115Z,50.40
2022-12-11T22:41:09.790Z,43.87
2022-12-11T22:43:43.679Z,45.17
2022-12-11T22:46:17.664Z,48.17
2022-12-11T22:48:51.700Z,38.80
2022-12-11T22:51:26.756Z,43.58
2022-12-11T22:54:00.531Z,44.15
2022-12-11T22:56:34.114Z,42.17
2022-12-11T22:59:07.909Z,43.25
2022-12-11T23:01:41.624Z,39.42
2022-12-11T23:04:15.380Z,46.47
2022-12-11T23:06:50.283Z,44.43
2022-12-11T23:09:24.337Z,44.03
2022-12-11T23:11:58.847Z,42.90
2022-12-11T23:14:32.729Z,41.25
2022-12-11T23:17:06.348Z,47.87
2022-12-11T23:19:40.126Z,48.45
2022-12-11T23:22:15.297Z,49.53
2022-12-11T23:24:48.961Z,47.17
2022-12-11T23:27:22.464Z,46.95
2022-12-11T23:29:56.150Z,42.78
2022-12-11T23:32:29.731Z,39.15
2022-12-11T23:35:03.416Z,43.03
2022-12-11T23:37:38.329Z,45.35
2022-12-11T23:40:14.108Z,41.97
2022-12-11T23:42:47.531Z,36.60
2022-12-11T23:45:21.687Z,43.95
2022-12-11T23:47:55.383Z,40.40
2022-12-11T23:50:31.130Z,42.05
2022-12-11T23:53:06.171Z,44.40
2022-12-11T23:55:41.191Z,42.65
2022-12-11T23:58:15.215Z,36.25
